Navajo Wingate Village, New Mexico
Current Conditions -  °F | °C
As of 1:53 PM on Friday 28 Nov 2014 (Local Time) from KGUP Reporting Station
Clear Clear  
Wind Chill: 66°   Ceiling: Unl
Heat Index: 66°   Visibility: 10mi
Dew Point:   Wind: 15mph
Humidity: 9%   Direction: 210°SSW
Pressure: 30.16"   Gusts: NA
Location:  35.5324°N, 108.6°W
Report Text: KGUP 282053Z AUTO 21013KT 10SM CLR 19/M16 A3016 RMK AO2 SLP168 T01891156 56034
Loading
Personal Weather Stations






























Interactive Weather Map New forecast layout! Learn more

10-Day Weather Forecast

Advertisements
Track Severe Weather on mobile